Time;durP1;ratioP1;P1;durP2;ratioP2;P2;SDS_P1;SDS_P2;PMS_P1;PMS_P2;Temp;Humidity;BMP_temperature;BMP_pressure;BME280_temperature;BME280_humidity;BME280_pressure;Samples;Min_cycle;Max_cycle;Signal;HPM_P1;HPM_P2
2023/05/23 00:00:19;;;;;;;0.40;0.20;;;;;;;;;;5082623;28;20456;-64
2023/05/23 00:02:45;;;;;;;0.40;0.20;;;;;;;;;;5078674;28;20503;-64
2023/05/23 00:05:14;;;;;;;0.40;0.40;;;;;;;;;;5069310;28;20460;-64
2023/05/23 00:07:40;;;;;;;0.40;0.30;;;;;;;;;;5081736;28;20459;-63
2023/05/23 00:10:07;;;;;;;0.40;0.20;;;;;;;;;;5073520;28;20527;-64
2023/05/23 00:12:33;;;;;;;0.30;0.20;;;;;;;;;;5081262;28;20511;-64
2023/05/23 00:15:00;;;;;;;0.40;0.20;;;;;;;;;;5083191;28;20996;-64
2023/05/23 00:17:26;;;;;;;0.30;0.20;;;;;;;;;;5077457;28;20497;-64
2023/05/23 00:19:54;;;;;;;0.40;0.20;;;;;;;;;;5088221;28;20467;-64
2023/05/23 00:22:22;;;;;;;0.40;0.20;;;;;;;;;;5078792;28;20486;-64
2023/05/23 00:24:49;;;;;;;0.30;0.20;;;;;;;;;;5079723;28;20513;-64
2023/05/23 00:27:15;;;;;;;0.33;0.20;;;;;;;;;;5087157;28;20511;-64
2023/05/23 00:29:41;;;;;;;0.40;0.20;;;;;;;;;;5084212;28;20528;-63
2023/05/23 00:32:08;;;;;;;0.37;0.20;;;;;;;;;;5083043;28;21003;-63
2023/05/23 00:34:35;;;;;;;0.30;0.20;;;;;;;;;;5099370;28;20470;-63
2023/05/23 00:37:02;;;;;;;0.60;0.60;;;;;;;;;;5088988;28;20486;-63
2023/05/23 00:39:30;;;;;;;0.40;0.20;;;;;;;;;;5066027;28;20453;-63
2023/05/23 00:41:57;;;;;;;0.40;0.20;;;;;;;;;;5078105;28;20518;-64
2023/05/23 00:44:23;;;;;;;0.40;0.20;;;;;;;;;;5078712;28;20506;-64
2023/05/23 00:46:51;;;;;;;0.47;0.40;;;;;;;;;;5080297;28;20479;-64
2023/05/23 00:49:18;;;;;;;1.53;1.50;;;;;;;;;;5099519;28;20479;-64
2023/05/23 00:51:45;;;;;;;0.30;0.20;;;;;;;;;;5071337;28;20480;-63
2023/05/23 00:54:12;;;;;;;0.30;0.20;;;;;;;;;;5079618;28;21108;-64
2023/05/23 00:56:40;;;;;;;0.40;0.20;;;;;;;;;;5067618;28;20660;-64
2023/05/23 00:59:06;;;;;;;0.40;0.20;;;;;;;;;;5078523;28;20957;-64
2023/05/23 01:01:35;;;;;;;0.30;0.20;;;;;;;;;;5080293;28;20543;-64
2023/05/23 01:04:03;;;;;;;0.37;0.20;;;;;;;;;;5077587;28;20913;-64
2023/05/23 01:06:29;;;;;;;0.30;0.10;;;;;;;;;;5083388;28;20561;-64
2023/05/23 01:08:56;;;;;;;0.40;0.20;;;;;;;;;;5078164;28;20460;-64
2023/05/23 01:11:25;;;;;;;0.30;0.20;;;;;;;;;;5079002;28;20544;-63
2023/05/23 01:13:57;;;;;;;0.30;0.20;;;;;;;;;;5079832;28;20448;-64
2023/05/23 01:16:28;;;;;;;0.40;0.20;;;;;;;;;;5080777;28;20540;-63
2023/05/23 01:18:58;;;;;;;0.30;0.20;;;;;;;;;;5072222;28;20480;-63
2023/05/23 01:21:27;;;;;;;0.40;0.20;;;;;;;;;;5081880;28;20480;-64
2023/05/23 01:24:11;;;;;;;0.30;0.20;;;;;;;;;;5081221;28;20563;-64
2023/05/23 01:26:47;;;;;;;0.30;0.10;;;;;;;;;;5072707;28;20565;-64
2023/05/23 01:29:20;;;;;;;0.30;0.20;;;;;;;;;;5084308;28;20491;-64
2023/05/23 01:31:49;;;;;;;0.30;0.20;;;;;;;;;;5077820;28;20566;-64
2023/05/23 01:34:17;;;;;;;0.93;0.93;;;;;;;;;;5080970;28;20436;-64
2023/05/23 01:36:44;;;;;;;0.40;0.20;;;;;;;;;;5080395;28;20537;-64
2023/05/23 01:39:11;;;;;;;0.40;0.20;;;;;;;;;;5083832;28;20470;-64
2023/05/23 01:41:37;;;;;;;0.30;0.20;;;;;;;;;;5080421;28;20555;-64
2023/05/23 01:44:04;;;;;;;0.30;0.20;;;;;;;;;;5081049;28;20511;-64
2023/05/23 01:46:33;;;;;;;0.30;0.20;;;;;;;;;;5085366;28;20978;-64
2023/05/23 01:49:01;;;;;;;0.30;0.10;;;;;;;;;;5072436;28;20456;-64
2023/05/23 01:51:27;;;;;;;0.40;0.20;;;;;;;;;;5079399;28;20503;-64
2023/05/23 01:53:54;;;;;;;0.60;0.60;;;;;;;;;;5080218;28;20506;-64
2023/05/23 01:56:21;;;;;;;0.40;0.20;;;;;;;;;;5080977;28;20502;-64
2023/05/23 01:58:47;;;;;;;0.30;0.20;;;;;;;;;;5091240;28;20447;-64
2023/05/23 02:01:14;;;;;;;0.30;0.20;;;;;;;;;;5093743;28;20496;-64
2023/05/23 02:03:42;;;;;;;0.30;0.20;;;;;;;;;;5080679;28;20593;-64
2023/05/23 02:06:08;;;;;;;0.30;0.20;;;;;;;;;;5081142;28;20770;-64
2023/05/23 02:08:38;;;;;;;0.40;0.20;;;;;;;;;;5083140;28;20456;-64
2023/05/23 02:11:04;;;;;;;0.30;0.20;;;;;;;;;;5099937;28;20551;-65
2023/05/23 02:13:30;;;;;;;0.67;0.20;;;;;;;;;;5085283;28;20459;-65
2023/05/23 02:15:57;;;;;;;0.40;0.20;;;;;;;;;;5083457;28;20482;-65
2023/05/23 02:18:25;;;;;;;0.40;0.40;;;;;;;;;;5100662;28;20482;-64
2023/05/23 02:20:52;;;;;;;0.40;0.20;;;;;;;;;;5086000;28;20472;-65
2023/05/23 02:23:19;;;;;;;0.40;0.20;;;;;;;;;;5081505;28;20527;-64
2023/05/23 02:25:45;;;;;;;0.30;0.20;;;;;;;;;;5081521;28;20543;-64
2023/05/23 02:28:12;;;;;;;0.40;0.20;;;;;;;;;;5081977;28;20459;-64
2023/05/23 02:30:38;;;;;;;0.40;0.20;;;;;;;;;;5078587;28;20483;-64
2023/05/23 02:33:05;;;;;;;0.37;0.20;;;;;;;;;;5072762;28;20491;-64
2023/05/23 02:35:32;;;;;;;0.40;0.20;;;;;;;;;;5077838;28;20563;-64
2023/05/23 02:37:59;;;;;;;0.40;0.20;;;;;;;;;;5081775;28;21119;-64
2023/05/23 02:40:26;;;;;;;0.40;0.20;;;;;;;;;;5081236;28;20462;-64
2023/05/23 02:42:55;;;;;;;0.40;0.20;;;;;;;;;;5083272;28;20475;-64
2023/05/23 02:45:22;;;;;;;0.40;0.20;;;;;;;;;;5094784;28;20440;-66
2023/05/23 02:47:48;;;;;;;0.40;0.20;;;;;;;;;;5090613;28;20475;-65
2023/05/23 02:50:15;;;;;;;0.40;0.20;;;;;;;;;;5084979;28;20503;-65
2023/05/23 02:52:42;;;;;;;0.40;0.20;;;;;;;;;;5082991;28;21309;-65
2023/05/23 02:55:10;;;;;;;0.40;0.20;;;;;;;;;;5081073;28;20540;-65
2023/05/23 02:57:37;;;;;;;0.40;0.20;;;;;;;;;;5068676;28;20516;-66
2023/05/23 03:00:04;;;;;;;0.40;0.20;;;;;;;;;;5091169;28;20570;-64
2023/05/23 03:02:30;;;;;;;0.40;0.20;;;;;;;;;;5083098;28;20479;-64
2023/05/23 03:04:57;;;;;;;0.40;0.20;;;;;;;;;;5082844;28;20491;-64
2023/05/23 03:07:24;;;;;;;0.40;0.20;;;;;;;;;;5082286;28;20503;-65
2023/05/23 03:09:51;;;;;;;0.40;0.20;;;;;;;;;;5094851;28;20488;-64
2023/05/23 03:12:19;;;;;;;0.40;0.30;;;;;;;;;;5085945;28;20471;-66
2023/05/23 03:14:45;;;;;;;0.40;0.20;;;;;;;;;;5083101;28;20466;-64
2023/05/23 03:17:13;;;;;;;0.40;0.20;;;;;;;;;;5082361;28;20535;-64
2023/05/23 03:19:39;;;;;;;0.40;0.20;;;;;;;;;;5086930;28;20462;-64
2023/05/23 03:22:06;;;;;;;0.40;0.20;;;;;;;;;;5086679;28;20547;-64
2023/05/23 03:24:32;;;;;;;0.40;0.20;;;;;;;;;;5086074;28;20495;-64
2023/05/23 03:27:00;;;;;;;0.40;0.20;;;;;;;;;;5076349;28;20560;-65
2023/05/23 03:29:28;;;;;;;0.40;0.20;;;;;;;;;;5064756;28;20843;-64
2023/05/23 03:31:54;;;;;;;0.40;0.20;;;;;;;;;;5074950;28;20484;-64
2023/05/23 03:34:22;;;;;;;0.30;0.20;;;;;;;;;;5082228;28;20486;-64
2023/05/23 03:36:49;;;;;;;0.40;0.20;;;;;;;;;;5082038;28;20909;-64
2023/05/23 03:39:16;;;;;;;0.30;0.20;;;;;;;;;;5066460;28;20460;-64
2023/05/23 03:41:42;;;;;;;0.40;0.20;;;;;;;;;;5067427;28;20537;-65
2023/05/23 03:44:09;;;;;;;0.40;0.20;;;;;;;;;;5081349;28;20475;-65
2023/05/23 03:46:36;;;;;;;0.33;0.20;;;;;;;;;;5061478;28;20556;-65
2023/05/23 03:49:03;;;;;;;0.30;0.20;;;;;;;;;;5072772;28;20547;-64
2023/05/23 03:51:30;;;;;;;0.30;0.20;;;;;;;;;;5066200;28;20475;-65
2023/05/23 03:53:56;;;;;;;0.40;0.20;;;;;;;;;;5059565;28;20485;-63
2023/05/23 03:56:23;;;;;;;0.40;0.20;;;;;;;;;;5072275;28;20927;-63
2023/05/23 03:58:49;;;;;;;0.40;0.20;;;;;;;;;;5066796;28;20482;-63
2023/05/23 04:01:26;;;;;;;0.30;0.20;;;;;;;;;;5075266;28;20564;-64
2023/05/23 04:03:54;;;;;;;0.40;0.20;;;;;;;;;;5063588;28;20476;-63
2023/05/23 04:06:21;;;;;;;0.30;0.20;;;;;;;;;;5070341;28;20494;-64
2023/05/23 04:08:48;;;;;;;0.40;0.20;;;;;;;;;;5065331;28;20461;-64
2023/05/23 04:11:14;;;;;;;20.37;18.97;;;;;;;;;;5064207;28;20481;-64
2023/05/23 04:13:41;;;;;;;0.30;0.20;;;;;;;;;;5063193;28;20448;-63
2023/05/23 04:16:07;;;;;;;0.30;0.20;;;;;;;;;;5059769;28;20852;-63
2023/05/23 04:18:34;;;;;;;0.30;0.20;;;;;;;;;;5076835;28;20889;-63
2023/05/23 04:21:02;;;;;;;0.30;0.20;;;;;;;;;;5075441;28;20511;-63
2023/05/23 04:23:28;;;;;;;0.30;0.20;;;;;;;;;;5079509;28;20440;-63
2023/05/23 04:25:56;;;;;;;96.03;32.60;;;;;;;;;;5071788;28;20516;-63
2023/05/23 04:28:22;;;;;;;221.43;53.07;;;;;;;;;;5071046;28;20462;-64
2023/05/23 04:30:49;;;;;;;116.97;51.83;;;;;;;;;;5074004;28;20568;-63
2023/05/23 04:33:16;;;;;;;124.00;52.93;;;;;;;;;;5069407;28;20444;-63
2023/05/23 04:35:42;;;;;;;180.33;59.00;;;;;;;;;;5056744;28;20481;-63
2023/05/23 04:38:12;;;;;;;162.37;59.30;;;;;;;;;;5070196;28;20499;-63
2023/05/23 04:40:38;;;;;;;352.67;72.60;;;;;;;;;;5048841;28;20497;-63
2023/05/23 04:43:05;;;;;;;181.97;57.70;;;;;;;;;;5055121;28;20469;-63
2023/05/23 04:45:31;;;;;;;701.90;103.73;;;;;;;;;;5065693;28;20561;-63
2023/05/23 04:47:58;;;;;;;475.70;86.23;;;;;;;;;;5077554;28;20477;-63
2023/05/23 04:50:24;;;;;;;299.03;67.83;;;;;;;;;;5072216;28;20476;-63
2023/05/23 04:52:50;;;;;;;242.53;73.67;;;;;;;;;;5065725;28;20452;-63
2023/05/23 04:55:19;;;;;;;209.93;66.07;;;;;;;;;;5063606;28;20483;-63
2023/05/23 04:57:45;;;;;;;485.73;94.50;;;;;;;;;;5054269;28;20452;-63
2023/05/23 05:00:13;;;;;;;334.07;79.13;;;;;;;;;;5060986;28;20479;-63
2023/05/23 05:02:40;;;;;;;256.63;78.50;;;;;;;;;;5060420;28;20555;-63
2023/05/23 05:05:06;;;;;;;345.63;78.37;;;;;;;;;;5054115;28;20579;-64
2023/05/23 05:07:34;;;;;;;152.37;66.80;;;;;;;;;;5056841;28;20465;-65
2023/05/23 05:10:00;;;;;;;130.50;63.63;;;;;;;;;;5055462;28;20456;-63
2023/05/23 05:12:31;;;;;;;213.27;73.50;;;;;;;;;;5053638;28;20496;-64
2023/05/23 05:14:57;;;;;;;157.60;69.87;;;;;;;;;;5051136;28;20448;-64
2023/05/23 05:17:24;;;;;;;584.70;107.70;;;;;;;;;;5040305;28;20481;-61
2023/05/23 05:19:50;;;;;;;207.10;83.37;;;;;;;;;;5047377;28;20461;-65
2023/05/23 05:22:17;;;;;;;148.23;65.73;;;;;;;;;;5050980;28;20519;-65
2023/05/23 05:24:43;;;;;;;199.80;77.90;;;;;;;;;;5056342;28;20513;-61
2023/05/23 05:27:10;;;;;;;391.17;97.53;;;;;;;;;;5062678;28;20518;-61
2023/05/23 05:29:38;;;;;;;133.70;70.57;;;;;;;;;;5079763;28;20460;-64
2023/05/23 05:32:07;;;;;;;179.13;78.13;;;;;;;;;;5079175;28;20968;-63
2023/05/23 05:34:34;;;;;;;282.57;89.30;;;;;;;;;;5064592;28;20457;-63
2023/05/23 05:37:00;;;;;;;336.77;95.90;;;;;;;;;;5073188;28;20507;-63
2023/05/23 05:39:27;;;;;;;166.40;73.70;;;;;;;;;;5072089;28;20839;-63
2023/05/23 05:41:53;;;;;;;165.60;74.90;;;;;;;;;;5058852;28;20543;-63
2023/05/23 05:44:19;;;;;;;189.27;81.60;;;;;;;;;;5077416;28;20519;-63
2023/05/23 05:46:48;;;;;;;146.50;70.57;;;;;;;;;;5066853;28;20479;-63
2023/05/23 05:49:14;;;;;;;302.17;93.13;;;;;;;;;;5069412;28;20469;-63
2023/05/23 05:51:41;;;;;;;150.10;73.83;;;;;;;;;;5059331;28;20473;-61
2023/05/23 05:54:07;;;;;;;177.70;78.50;;;;;;;;;;5076336;28;20554;-62
2023/05/23 05:56:34;;;;;;;171.67;74.80;;;;;;;;;;5073317;28;20480;-61
2023/05/23 05:59:00;;;;;;;152.27;75.20;;;;;;;;;;5073753;28;20502;-62
2023/05/23 06:01:27;;;;;;;147.87;75.60;;;;;;;;;;5069147;28;20511;-63
2023/05/23 06:03:55;;;;;;;170.63;76.03;;;;;;;;;;5080476;28;20455;-62
2023/05/23 06:06:21;;;;;;;134.27;70.97;;;;;;;;;;5074803;28;20480;-62
2023/05/23 06:08:47;;;;;;;170.77;77.27;;;;;;;;;;5077268;28;20467;-62
2023/05/23 06:11:14;;;;;;;238.77;81.53;;;;;;;;;;5078344;28;20499;-62
2023/05/23 06:13:40;;;;;;;212.43;90.17;;;;;;;;;;5082588;28;20913;-63
2023/05/23 06:16:07;;;;;;;203.90;87.33;;;;;;;;;;5066332;28;20469;-63
2023/05/23 06:18:33;;;;;;;203.87;76.93;;;;;;;;;;5067614;28;20494;-63
2023/05/23 06:21:01;;;;;;;144.93;76.60;;;;;;;;;;5079688;28;20563;-64
2023/05/23 06:23:27;;;;;;;141.10;69.33;;;;;;;;;;5080863;28;20512;-63
2023/05/23 06:25:54;;;;;;;163.73;75.23;;;;;;;;;;5074314;28;20492;-63
2023/05/23 06:28:21;;;;;;;168.73;76.13;;;;;;;;;;5068856;28;20452;-63
2023/05/23 06:30:47;;;;;;;199.33;72.43;;;;;;;;;;5072120;28;20528;-62
2023/05/23 06:33:13;;;;;;;175.50;66.83;;;;;;;;;;5063117;28;20491;-61
2023/05/23 06:35:40;;;;;;;123.23;62.37;;;;;;;;;;5072262;28;20501;-61
2023/05/23 06:38:08;;;;;;;169.57;64.40;;;;;;;;;;5066614;28;20492;-60
2023/05/23 06:40:34;;;;;;;131.83;59.90;;;;;;;;;;5072313;28;20495;-61
2023/05/23 06:43:01;;;;;;;116.37;60.77;;;;;;;;;;5069893;28;20475;-60
2023/05/23 06:45:27;;;;;;;121.07;63.00;;;;;;;;;;5081437;28;20546;-61
2023/05/23 06:47:53;;;;;;;111.57;59.40;;;;;;;;;;5075139;28;20482;-61
2023/05/23 06:50:20;;;;;;;138.90;63.27;;;;;;;;;;5067014;28;20491;-61
2023/05/23 06:52:46;;;;;;;141.97;59.83;;;;;;;;;;5062973;28;20472;-60
2023/05/23 06:55:17;;;;;;;104.23;58.10;;;;;;;;;;5064923;28;20477;-61
2023/05/23 06:57:43;;;;;;;180.63;65.30;;;;;;;;;;5080750;28;20995;-61
2023/05/23 07:00:12;;;;;;;97.97;55.33;;;;;;;;;;5081890;28;20531;-61
2023/05/23 07:02:38;;;;;;;142.20;63.83;;;;;;;;;;5066639;28;20924;-62
2023/05/23 07:05:05;;;;;;;104.23;55.00;;;;;;;;;;5058599;28;20832;-62
2023/05/23 07:07:32;;;;;;;127.57;58.73;;;;;;;;;;5068261;28;20495;-62
2023/05/23 07:09:58;;;;;;;91.33;51.23;;;;;;;;;;5064033;28;20969;-62
2023/05/23 07:12:28;;;;;;;89.43;54.13;;;;;;;;;;5067683;28;20485;-62
2023/05/23 07:14:54;;;;;;;95.87;54.20;;;;;;;;;;5055239;28;20531;-61
2023/05/23 07:17:21;;;;;;;97.37;54.60;;;;;;;;;;5062031;28;20571;-62
2023/05/23 07:19:47;;;;;;;90.63;53.23;;;;;;;;;;5074412;28;21030;-62
2023/05/23 07:22:14;;;;;;;82.23;50.40;;;;;;;;;;5074911;28;20825;-61
2023/05/23 07:24:40;;;;;;;80.33;46.87;;;;;;;;;;5074216;28;20487;-61
2023/05/23 07:27:07;;;;;;;76.23;45.50;;;;;;;;;;5077706;28;20555;-61
2023/05/23 07:29:35;;;;;;;70.33;43.90;;;;;;;;;;5074840;28;20990;-62
2023/05/23 07:32:02;;;;;;;65.37;41.80;;;;;;;;;;5060859;28;20472;-62
2023/05/23 07:34:29;;;;;;;69.03;40.03;;;;;;;;;;5060750;28;20549;-62
2023/05/23 07:36:55;;;;;;;61.50;40.23;;;;;;;;;;5072308;28;20481;-61
2023/05/23 07:39:23;;;;;;;58.00;36.97;;;;;;;;;;5072914;28;20475;-61
2023/05/23 07:41:49;;;;;;;48.93;32.27;;;;;;;;;;5065344;28;20520;-60
2023/05/23 07:44:15;;;;;;;43.60;29.93;;;;;;;;;;5071517;28;20461;-60
2023/05/23 07:46:43;;;;;;;45.73;31.10;;;;;;;;;;5065011;28;20520;-60
2023/05/23 07:49:10;;;;;;;37.07;24.43;;;;;;;;;;5076316;28;20479;-61
2023/05/23 07:51:36;;;;;;;38.17;25.13;;;;;;;;;;5075219;28;20500;-60
2023/05/23 07:54:02;;;;;;;36.40;22.13;;;;;;;;;;5062681;28;20476;-60
2023/05/23 07:56:29;;;;;;;33.17;21.67;;;;;;;;;;5063134;28;20503;-60
2023/05/23 07:58:56;;;;;;;30.17;21.30;;;;;;;;;;5068971;28;20460;-61
2023/05/23 08:01:23;;;;;;;29.07;19.80;;;;;;;;;;5076397;28;20588;-60
2023/05/23 08:03:51;;;;;;;26.57;20.30;;;;;;;;;;5068575;28;20812;-61
2023/05/23 08:06:17;;;;;;;25.27;18.30;;;;;;;;;;5062568;28;20622;-60
2023/05/23 08:08:44;;;;;;;24.30;16.03;;;;;;;;;;5072001;28;20488;-61
2023/05/23 08:11:10;;;;;;;21.27;15.00;;;;;;;;;;5065935;28;20479;-61
2023/05/23 08:13:37;;;;;;;20.87;15.77;;;;;;;;;;5065769;28;20579;-61
2023/05/23 08:16:03;;;;;;;20.20;15.10;;;;;;;;;;5060933;28;21016;-62
2023/05/23 08:18:29;;;;;;;19.03;13.40;;;;;;;;;;5061779;28;20463;-61
2023/05/23 08:20:57;;;;;;;16.30;13.37;;;;;;;;;;5061679;28;20469;-61
2023/05/23 08:23:24;;;;;;;14.23;11.83;;;;;;;;;;5062675;28;20448;-61
2023/05/23 08:25:50;;;;;;;14.90;12.60;;;;;;;;;;5070941;28;20483;-61
2023/05/23 08:28:17;;;;;;;15.40;12.23;;;;;;;;;;5072836;28;20458;-61
2023/05/23 08:30:43;;;;;;;18.30;12.97;;;;;;;;;;5061892;28;20464;-61
2023/05/23 08:33:09;;;;;;;15.23;11.67;;;;;;;;;;5067262;28;20490;-61
2023/05/23 08:35:36;;;;;;;13.70;12.23;;;;;;;;;;5067212;28;20555;-61
2023/05/23 08:38:04;;;;;;;16.97;14.00;;;;;;;;;;5063652;28;20484;-61
2023/05/23 08:40:31;;;;;;;18.77;13.50;;;;;;;;;;5060730;28;20496;-62
2023/05/23 08:42:58;;;;;;;20.00;15.10;;;;;;;;;;5072457;28;20914;-61
2023/05/23 08:45:24;;;;;;;19.23;14.50;;;;;;;;;;5073888;28;20537;-61
2023/05/23 08:47:51;;;;;;;19.03;14.90;;;;;;;;;;5059174;28;20438;-61
2023/05/23 08:50:18;;;;;;;23.90;16.37;;;;;;;;;;5067974;28;20535;-62
2023/05/23 08:52:57;;;;;;;24.93;16.37;;;;;;;;;;5066402;28;20464;-62
2023/05/23 08:55:26;;;;;;;21.93;15.20;;;;;;;;;;5056697;28;20574;-61
2023/05/23 08:57:53;;;;;;;24.63;18.60;;;;;;;;;;5066304;28;20455;-61
2023/05/23 09:00:20;;;;;;;22.93;18.17;;;;;;;;;;5066801;28;20457;-61
2023/05/23 09:02:46;;;;;;;26.43;18.40;;;;;;;;;;5071385;28;20496;-62
2023/05/23 09:05:13;;;;;;;21.00;16.00;;;;;;;;;;5063041;28;21046;-61
2023/05/23 09:07:40;;;;;;;27.97;17.57;;;;;;;;;;5057614;28;20455;-61
2023/05/23 09:10:07;;;;;;;23.03;16.50;;;;;;;;;;5071874;28;20459;-61
2023/05/23 09:12:36;;;;;;;22.33;15.23;;;;;;;;;;5067192;28;21006;-61
2023/05/23 09:15:03;;;;;;;25.07;15.87;;;;;;;;;;5063812;28;20537;-62
2023/05/23 09:17:31;;;;;;;27.70;17.30;;;;;;;;;;5069348;28;20507;-61
2023/05/23 09:19:57;;;;;;;22.73;16.37;;;;;;;;;;5074861;28;20787;-62
2023/05/23 09:22:24;;;;;;;32.10;20.67;;;;;;;;;;5064026;28;20547;-62
2023/05/23 09:24:51;;;;;;;39.10;20.70;;;;;;;;;;5075448;28;20461;-62
2023/05/23 09:27:18;;;;;;;29.00;20.87;;;;;;;;;;5074584;28;20503;-61
2023/05/23 09:29:46;;;;;;;41.73;25.23;;;;;;;;;;5080953;28;20478;-61
2023/05/23 09:32:13;;;;;;;43.53;25.53;;;;;;;;;;5071337;28;20572;-61
2023/05/23 09:34:42;;;;;;;43.03;25.60;;;;;;;;;;5069462;28;20465;-62
2023/05/23 09:37:12;;;;;;;44.97;25.57;;;;;;;;;;5066444;28;20492;-61
2023/05/23 09:39:38;;;;;;;45.50;25.63;;;;;;;;;;5074583;28;20459;-61
2023/05/23 09:42:05;;;;;;;53.37;28.30;;;;;;;;;;5064949;28;20513;-61
2023/05/23 09:44:32;;;;;;;43.67;25.17;;;;;;;;;;5064055;28;20446;-61
2023/05/23 09:47:06;;;;;;;46.83;27.20;;;;;;;;;;5076967;28;20499;-61
2023/05/23 09:49:32;;;;;;;41.90;25.93;;;;;;;;;;5069061;28;20460;-63
2023/05/23 09:51:59;;;;;;;48.97;27.07;;;;;;;;;;5063016;28;20527;-62
2023/05/23 09:54:26;;;;;;;44.73;28.50;;;;;;;;;;5072049;28;21067;-62
2023/05/23 09:56:54;;;;;;;48.40;31.73;;;;;;;;;;5065307;28;20518;-62
2023/05/23 09:59:23;;;;;;;56.17;30.10;;;;;;;;;;5062920;28;20925;-62
2023/05/23 10:01:51;;;;;;;47.23;28.13;;;;;;;;;;5078451;28;20501;-62
2023/05/23 10:04:20;;;;;;;44.00;27.73;;;;;;;;;;5077665;28;20484;-63
2023/05/23 10:06:50;;;;;;;54.43;29.47;;;;;;;;;;5069722;28;20565;-62
2023/05/23 10:09:17;;;;;;;52.40;29.83;;;;;;;;;;5069577;28;20532;-63
2023/05/23 10:12:11;;;;;;;47.70;28.90;;;;;;;;;;5063699;28;20480;-63
2023/05/23 10:14:39;;;;;;;45.70;27.80;;;;;;;;;;5083517;28;20671;-63
2023/05/23 10:17:08;;;;;;;44.13;26.67;;;;;;;;;;5077274;28;20478;-63
2023/05/23 10:19:40;;;;;;;47.80;28.33;;;;;;;;;;5072307;28;20460;-63
2023/05/23 10:22:08;;;;;;;41.30;25.70;;;;;;;;;;5071135;28;20510;-61
2023/05/23 10:24:35;;;;;;;42.87;26.90;;;;;;;;;;5067152;28;20487;-61
2023/05/23 10:27:02;;;;;;;48.40;29.90;;;;;;;;;;5075148;28;20499;-61
2023/05/23 10:29:29;;;;;;;41.03;25.23;;;;;;;;;;5076784;28;20475;-61
2023/05/23 10:31:56;;;;;;;50.10;28.23;;;;;;;;;;5076751;28;20476;-62
2023/05/23 10:34:27;;;;;;;43.70;27.50;;;;;;;;;;5080813;28;20443;-61
2023/05/23 10:36:57;;;;;;;50.23;27.10;;;;;;;;;;5076763;28;20479;-62
2023/05/23 10:39:30;;;;;;;42.13;27.53;;;;;;;;;;5070527;28;20514;-61
2023/05/23 10:41:58;;;;;;;46.63;26.50;;;;;;;;;;5076750;28;21034;-61
2023/05/23 10:44:26;;;;;;;46.70;26.30;;;;;;;;;;5065000;28;20456;-61
2023/05/23 10:46:53;;;;;;;51.87;29.20;;;;;;;;;;5066361;28;20499;-61
2023/05/23 10:49:20;;;;;;;38.10;25.80;;;;;;;;;;5075903;28;20448;-61
2023/05/23 10:51:48;;;;;;;45.60;24.30;;;;;;;;;;5080027;28;20529;-60
2023/05/23 10:54:18;;;;;;;38.10;24.20;;;;;;;;;;5070811;28;20539;-60
2023/05/23 10:56:44;;;;;;;38.33;24.90;;;;;;;;;;5069313;28;20515;-61
2023/05/23 10:59:19;;;;;;;32.60;22.10;;;;;;;;;;5066032;28;20524;-61
2023/05/23 11:01:46;;;;;;;31.90;21.80;;;;;;;;;;5053181;28;20539;-61
2023/05/23 11:04:12;;;;;;;37.27;22.60;;;;;;;;;;5071211;28;20453;-61
2023/05/23 11:06:41;;;;;;;37.33;21.03;;;;;;;;;;5082019;28;20562;-61
2023/05/23 11:09:10;;;;;;;36.43;21.47;;;;;;;;;;5067549;28;20560;-61
2023/05/23 11:11:53;;;;;;;30.40;18.70;;;;;;;;;;5064346;28;20480;-61
2023/05/23 11:14:30;;;;;;;32.27;20.40;;;;;;;;;;5073799;28;20543;-62
2023/05/23 11:16:56;;;;;;;27.50;18.87;;;;;;;;;;5075826;28;20499;-61
2023/05/23 11:19:26;;;;;;;31.83;20.53;;;;;;;;;;5080882;28;20503;-62
2023/05/23 11:21:53;;;;;;;31.20;19.10;;;;;;;;;;5064109;28;20574;-62
2023/05/23 11:24:20;;;;;;;27.23;17.80;;;;;;;;;;5078693;28;20506;-61
2023/05/23 11:26:52;;;;;;;32.50;17.40;;;;;;;;;;5077223;28;20476;-62
2023/05/23 11:29:20;;;;;;;27.20;14.33;;;;;;;;;;5076624;28;20456;-62
2023/05/23 11:31:47;;;;;;;27.57;14.53;;;;;;;;;;5065616;28;20648;-61
2023/05/23 11:34:13;;;;;;;30.70;15.00;;;;;;;;;;5065341;28;20472;-61
2023/05/23 11:36:40;;;;;;;28.97;15.00;;;;;;;;;;5077296;28;20471;-61
2023/05/23 11:39:06;;;;;;;24.83;14.40;;;;;;;;;;5075693;28;20462;-62
2023/05/23 11:41:34;;;;;;;25.97;13.43;;;;;;;;;;5073914;28;20476;-62
2023/05/23 11:44:01;;;;;;;26.33;13.73;;;;;;;;;;5073210;28;20467;-62
2023/05/23 11:46:29;;;;;;;24.03;12.17;;;;;;;;;;5073467;28;20617;-62
2023/05/23 11:48:55;;;;;;;25.97;12.10;;;;;;;;;;5072181;28;20480;-62
2023/05/23 11:51:22;;;;;;;24.13;10.87;;;;;;;;;;5062638;28;20511;-62
2023/05/23 11:53:48;;;;;;;22.77;12.23;;;;;;;;;;5063248;28;20533;-62
2023/05/23 11:56:15;;;;;;;30.13;12.87;;;;;;;;;;5063408;28;20480;-62
2023/05/23 11:58:43;;;;;;;21.80;11.47;;;;;;;;;;5071200;28;20453;-62
2023/05/23 12:01:11;;;;;;;21.07;11.33;;;;;;;;;;5068751;28;20484;-62
2023/05/23 12:03:46;;;;;;;20.73;10.60;;;;;;;;;;5064381;28;20462;-62
2023/05/23 12:06:14;;;;;;;28.60;12.47;;;;;;;;;;5069047;28;20505;-62
2023/05/23 12:08:41;;;;;;;21.03;13.87;;;;;;;;;;5072146;28;20447;-62
2023/05/23 12:11:07;;;;;;;32.17;12.40;;;;;;;;;;5071513;28;20480;-62
2023/05/23 12:13:33;;;;;;;28.50;11.87;;;;;;;;;;5071558;28;20478;-62
2023/05/23 12:16:01;;;;;;;23.60;11.90;;;;;;;;;;5072743;28;20473;-62
2023/05/23 12:18:28;;;;;;;19.97;9.70;;;;;;;;;;5068078;28;20441;-62
2023/05/23 12:20:59;;;;;;;22.27;10.33;;;;;;;;;;5069422;28;20955;-62
2023/05/23 12:23:26;;;;;;;23.03;9.70;;;;;;;;;;5074390;28;20451;-61
2023/05/23 12:25:53;;;;;;;19.03;9.60;;;;;;;;;;5071371;28;20611;-61
2023/05/23 12:28:20;;;;;;;18.27;9.13;;;;;;;;;;5072581;28;20464;-62
2023/05/23 12:30:47;;;;;;;16.80;9.20;;;;;;;;;;5065528;28;20579;-61
2023/05/23 12:33:14;;;;;;;18.90;9.33;;;;;;;;;;5071107;28;20925;-62
2023/05/23 12:35:42;;;;;;;14.83;8.00;;;;;;;;;;5065451;28;20478;-63
2023/05/23 12:38:15;;;;;;;20.20;8.20;;;;;;;;;;5078816;28;20796;-62
2023/05/23 12:40:41;;;;;;;21.03;7.77;;;;;;;;;;5064363;28;20518;-62
2023/05/23 12:43:09;;;;;;;18.07;7.50;;;;;;;;;;5070154;28;20459;-62
2023/05/23 12:45:36;;;;;;;19.67;7.10;;;;;;;;;;5061333;28;21020;-62
2023/05/23 12:48:02;;;;;;;12.97;6.90;;;;;;;;;;5069905;28;20483;-62
2023/05/23 12:50:29;;;;;;;16.43;7.60;;;;;;;;;;5069958;28;20462;-62
2023/05/23 12:52:56;;;;;;;16.93;6.27;;;;;;;;;;5078754;28;20804;-62
2023/05/23 12:55:24;;;;;;;17.90;6.23;;;;;;;;;;5076601;28;20859;-62
2023/05/23 12:57:50;;;;;;;15.17;5.70;;;;;;;;;;5062573;28;20467;-62
2023/05/23 13:00:18;;;;;;;12.93;6.37;;;;;;;;;;5062504;28;20921;-62
2023/05/23 13:02:44;;;;;;;14.77;6.37;;;;;;;;;;5079973;28;20517;-62
2023/05/23 13:05:11;;;;;;;12.63;6.10;;;;;;;;;;5068021;28;20467;-62
2023/05/23 13:07:38;;;;;;;17.03;5.13;;;;;;;;;;5069530;28;21009;-63
2023/05/23 13:10:04;;;;;;;13.97;5.97;;;;;;;;;;5061263;28;20480;-62
2023/05/23 13:12:33;;;;;;;18.63;6.10;;;;;;;;;;5079261;28;20900;-63
2023/05/23 13:14:59;;;;;;;11.77;5.87;;;;;;;;;;5068142;28;20832;-63
2023/05/23 13:17:26;;;;;;;13.93;6.17;;;;;;;;;;5059022;28;20475;-63
2023/05/23 13:19:52;;;;;;;11.37;5.70;;;;;;;;;;5066679;28;20460;-62
2023/05/23 13:22:19;;;;;;;11.90;5.10;;;;;;;;;;5074650;28;20476;-62
2023/05/23 13:24:45;;;;;;;11.33;5.27;;;;;;;;;;5052461;28;20457;-61
2023/05/23 13:27:11;;;;;;;19.93;5.60;;;;;;;;;;5054970;28;20516;-60
2023/05/23 13:29:39;;;;;;;10.57;5.10;;;;;;;;;;5059014;28;20492;-61
2023/05/23 13:32:06;;;;;;;14.40;5.20;;;;;;;;;;5059427;28;20512;-63
2023/05/23 13:34:36;;;;;;;15.87;5.20;;;;;;;;;;5046928;28;20460;-61
2023/05/23 13:37:02;;;;;;;10.03;4.73;;;;;;;;;;5056711;28;20491;-61
2023/05/23 13:39:28;;;;;;;13.47;5.33;;;;;;;;;;5059957;28;20780;-60
2023/05/23 13:41:55;;;;;;;12.43;4.83;;;;;;;;;;5061128;28;20937;-61
2023/05/23 13:44:21;;;;;;;14.10;4.67;;;;;;;;;;5056115;28;20449;-62
2023/05/23 13:46:49;;;;;;;9.97;5.43;;;;;;;;;;5050569;28;20473;-61
2023/05/23 13:49:16;;;;;;;11.10;5.07;;;;;;;;;;5058026;28;20488;-61
2023/05/23 13:51:44;;;;;;;15.80;4.67;;;;;;;;;;5059541;28;20488;-62
2023/05/23 13:54:12;;;;;;;12.00;4.60;;;;;;;;;;5062233;28;20483;-62
2023/05/23 13:56:39;;;;;;;14.37;4.90;;;;;;;;;;5052508;28;20484;-62
2023/05/23 13:59:05;;;;;;;12.37;4.93;;;;;;;;;;5058755;28;21059;-62
2023/05/23 14:01:32;;;;;;;9.03;4.23;;;;;;;;;;5063219;28;20884;-62
2023/05/23 14:04:00;;;;;;;14.33;4.70;;;;;;;;;;5059996;28;20539;-63
2023/05/23 14:06:26;;;;;;;11.63;5.10;;;;;;;;;;5057962;28;20532;-63
2023/05/23 14:08:52;;;;;;;10.77;5.70;;;;;;;;;;5065518;28;20476;-63
2023/05/23 14:11:19;;;;;;;16.00;5.57;;;;;;;;;;5074737;28;20482;-63
2023/05/23 14:13:45;;;;;;;12.90;4.40;;;;;;;;;;5073321;28;20455;-62
2023/05/23 14:16:11;;;;;;;7.17;3.70;;;;;;;;;;5064237;28;20503;-60
2023/05/23 14:18:38;;;;;;;8.80;4.00;;;;;;;;;;5072255;28;20881;-60
2023/05/23 14:21:06;;;;;;;10.30;5.07;;;;;;;;;;5058949;28;20476;-63
2023/05/23 14:23:32;;;;;;;10.57;4.60;;;;;;;;;;5069817;28;20478;-62